createdAt,value
2018-12-21T00:01:18.083Z,25.57
2018-12-21T00:03:51.171Z,23.87
2018-12-21T00:06:23.506Z,26.27
2018-12-21T00:09:00.055Z,30.00
2018-12-21T00:11:33.147Z,22.03
2018-12-21T00:14:05.410Z,21.83
2018-12-21T00:16:37.898Z,33.67
2018-12-21T00:19:11.004Z,29.27
2018-12-21T00:21:47.324Z,26.27
2018-12-21T00:24:20.331Z,26.03
2018-12-21T00:26:56.696Z,23.63
2018-12-21T00:29:29.170Z,26.53
2018-12-21T00:32:07.250Z,29.27
2018-12-21T00:34:45.309Z,42.90
2018-12-21T00:37:24.884Z,27.10
2018-12-21T00:40:02.187Z,25.33
2018-12-21T00:43:47.351Z,43.80
2018-12-21T00:46:24.579Z,24.00
2018-12-21T00:48:58.046Z,37.40
2018-12-21T00:51:31.063Z,28.07
2018-12-21T00:54:03.461Z,26.47
2018-12-21T00:56:39.659Z,23.20
2018-12-21T00:59:12.170Z,26.47
2018-12-21T01:01:48.550Z,24.00
2018-12-21T01:04:21.634Z,36.77
2018-12-21T01:06:54.655Z,35.40
2018-12-21T01:09:27.087Z,25.90
2018-12-21T01:12:01.175Z,25.17
2018-12-21T01:14:33.394Z,27.53
2018-12-21T01:17:10.354Z,29.37
2018-12-21T01:19:43.138Z,27.80
2018-12-21T01:22:15.914Z,29.30
2018-12-21T01:24:48.157Z,27.50
2018-12-21T01:27:20.486Z,29.43
2018-12-21T01:29:52.697Z,26.10
2018-12-21T01:32:25.606Z,32.63
2018-12-21T01:34:58.748Z,29.77
2018-12-21T01:37:35.998Z,24.90
2018-12-21T01:40:12.985Z,42.07
2018-12-21T01:42:50.112Z,32.23
2018-12-21T01:45:23.242Z,28.93
2018-12-21T01:48:00.387Z,29.33
2018-12-21T01:50:33.541Z,26.87
2018-12-21T01:53:10.656Z,30.23
2018-12-21T01:55:43.690Z,26.63
2018-12-21T01:58:16.793Z,23.13
2018-12-21T02:00:53.030Z,22.07
2018-12-21T02:03:26.178Z,27.37
2018-12-21T02:06:02.411Z,20.37
2018-12-21T02:08:39.478Z,26.07
2018-12-21T02:11:11.708Z,26.30
2018-12-21T02:13:43.927Z,25.80
2018-12-21T02:16:16.941Z,27.17
2018-12-21T02:18:50.110Z,26.07
2018-12-21T02:21:23.290Z,23.03
2018-12-21T02:23:56.391Z,26.67
2018-12-21T02:26:29.405Z,21.13
2018-12-21T02:29:03.138Z,25.33
2018-12-21T02:31:35.980Z,26.17
2018-12-21T02:34:12.187Z,21.80
2018-12-21T02:36:45.089Z,19.63
2018-12-21T02:39:25.047Z,19.27
2018-12-21T02:41:57.996Z,19.17
2018-12-21T02:44:31.019Z,19.53
2018-12-21T02:47:03.842Z,25.67
2018-12-21T02:49:40.080Z,18.03
2018-12-21T02:52:17.195Z,21.10
2018-12-21T02:54:49.519Z,20.17
2018-12-21T02:57:21.818Z,21.40
2018-12-21T02:59:59.020Z,17.50
2018-12-21T03:02:32.030Z,20.93
2018-12-21T03:05:05.234Z,19.53
2018-12-21T03:07:38.378Z,19.23
2018-12-21T03:10:15.750Z,21.13
2018-12-21T03:12:52.694Z,21.00
2018-12-21T03:15:25.785Z,18.37
2018-12-21T03:17:59.041Z,22.13
2018-12-21T03:20:32.061Z,17.97
2018-12-21T03:23:05.082Z,17.17
2018-12-21T03:25:42.083Z,22.43
2018-12-21T03:28:19.358Z,19.67
2018-12-21T03:30:56.417Z,20.60
2018-12-21T03:33:29.454Z,22.97
2018-12-21T03:36:06.566Z,19.80
2018-12-21T03:38:38.975Z,22.53
2018-12-21T03:41:12.022Z,20.93
2018-12-21T03:43:45.118Z,20.67
2018-12-21T03:46:18.076Z,21.83
2018-12-21T03:53:50.010Z,17.27
2018-12-21T03:56:23.135Z,17.17
2018-12-21T03:58:59.482Z,20.40
2018-12-21T04:01:35.676Z,16.27
2018-12-21T04:04:12.701Z,18.27
2018-12-21T04:06:49.205Z,19.00
2018-12-21T04:09:26.179Z,15.73
2018-12-21T04:11:59.332Z,19.93
2018-12-21T04:14:32.449Z,19.90
2018-12-21T04:17:08.662Z,17.20
2018-12-21T04:19:41.750Z,16.03
2018-12-21T04:22:14.005Z,17.90
2018-12-21T04:24:47.076Z,17.57
2018-12-21T04:27:19.995Z,20.23
2018-12-21T04:29:52.902Z,18.40
2018-12-21T04:32:25.899Z,19.17
2018-12-21T04:34:58.923Z,24.60
2018-12-21T04:37:31.899Z,22.77
2018-12-21T04:40:05.094Z,17.50
2018-12-21T04:42:38.050Z,21.93
2018-12-21T04:45:11.029Z,19.73
2018-12-21T04:47:43.349Z,17.57
2018-12-21T04:50:15.711Z,17.30
2018-12-21T04:52:48.870Z,21.43
2018-12-21T04:55:25.998Z,20.93
2018-12-21T04:57:59.239Z,14.63
2018-12-21T05:00:32.342Z,13.20
2018-12-21T05:03:05.471Z,16.07
2018-12-21T05:05:39.598Z,12.83
2018-12-21T05:08:12.652Z,12.40
2018-12-21T05:10:45.626Z,13.40
2018-12-21T05:13:18.832Z,16.90
2018-12-21T05:15:51.303Z,15.03
2018-12-21T05:18:24.370Z,15.20
2018-12-21T05:20:57.465Z,18.13
2018-12-21T05:23:39.058Z,16.20
2018-12-21T05:26:12.171Z,15.47
2018-12-21T05:28:45.297Z,14.73
2018-12-21T05:31:18.318Z,15.17
2018-12-21T05:33:51.366Z,15.73
2018-12-21T05:36:24.347Z,16.37
2018-12-21T05:38:57.526Z,16.80
2018-12-21T05:41:30.520Z,16.73
2018-12-21T05:44:06.792Z,12.90
2018-12-21T05:46:43.067Z,14.10
2018-12-21T05:49:16.154Z,14.30
2018-12-21T05:51:49.202Z,13.77
2018-12-21T05:54:25.462Z,16.97
2018-12-21T05:57:02.799Z,15.00
2018-12-21T05:59:35.453Z,14.93
2018-12-21T06:02:12.635Z,16.03
2018-12-21T06:04:45.791Z,17.37
2018-12-21T06:07:19.047Z,16.47
2018-12-21T06:09:55.534Z,17.27
2018-12-21T06:12:27.782Z,15.47
2018-12-21T06:15:00.788Z,17.70
2018-12-21T06:17:37.133Z,16.73
2018-12-21T06:20:10.314Z,17.63
2018-12-21T06:22:47.269Z,16.90
2018-12-21T06:25:24.546Z,15.03
2018-12-21T06:27:57.647Z,15.63
2018-12-21T06:30:30.387Z,16.93
2018-12-21T06:33:02.738Z,17.27
2018-12-21T06:35:35.878Z,19.03
2018-12-21T06:38:08.301Z,46.63
2018-12-21T06:40:41.322Z,46.63
2018-12-21T06:43:14.482Z,39.50
2018-12-21T06:45:48.657Z,18.17
2018-12-21T06:48:21.406Z,20.03
2018-12-21T06:50:54.487Z,24.33
2018-12-21T06:53:26.764Z,39.63
2018-12-21T06:55:59.759Z,31.90
2018-12-21T06:58:32.890Z,30.93
2018-12-21T07:01:05.819Z,16.80
2018-12-21T07:03:38.636Z,16.97
2018-12-21T07:06:11.019Z,15.17
2018-12-21T07:08:44.034Z,15.70
2018-12-21T07:11:16.910Z,16.03
2018-12-21T07:13:49.973Z,15.87
2018-12-21T07:16:23.078Z,13.93
2018-12-21T07:18:55.360Z,14.23
2018-12-21T07:21:28.290Z,19.40
2018-12-21T07:24:00.526Z,30.20
2018-12-21T07:26:33.574Z,22.80
2018-12-21T07:29:06.725Z,22.00
2018-12-21T07:31:39.446Z,22.33
2018-12-21T07:34:12.550Z,15.87
2018-12-21T07:36:48.880Z,42.37
2018-12-21T07:39:22.142Z,62.60
2018-12-21T07:41:58.935Z,65.37
2018-12-21T07:44:32.059Z,53.17
2018-12-21T07:47:08.435Z,44.97
2018-12-21T07:49:45.606Z,52.00
2018-12-21T07:52:18.615Z,49.50
2018-12-21T07:54:51.704Z,20.37
2018-12-21T07:57:28.096Z,25.23
2018-12-21T08:00:08.970Z,44.77
2018-12-21T08:02:45.606Z,41.43
2018-12-21T08:05:17.877Z,24.37
2018-12-21T08:07:50.206Z,19.87
2018-12-21T08:10:23.210Z,19.77
2018-12-21T08:12:55.799Z,14.43
2018-12-21T08:15:28.857Z,21.23
2018-12-21T08:18:01.376Z,23.43
2018-12-21T08:20:34.554Z,22.80
2018-12-21T08:23:07.695Z,22.20
2018-12-21T08:25:40.870Z,12.87
2018-12-21T08:28:18.928Z,10.90
2018-12-21T08:30:51.951Z,9.23
2018-12-21T08:33:29.058Z,29.87
2018-12-21T08:36:02.122Z,23.00
2018-12-21T08:38:35.061Z,24.00
2018-12-21T08:41:08.256Z,22.97
2018-12-21T08:43:40.552Z,19.53
2018-12-21T08:46:13.543Z,19.30
2018-12-21T08:48:46.806Z,21.60
2018-12-21T08:51:23.847Z,21.87
2018-12-21T08:53:56.243Z,19.70
2018-12-21T08:56:29.293Z,19.33
2018-12-21T08:59:02.361Z,21.07
2018-12-21T09:01:35.845Z,28.17
2018-12-21T09:04:08.758Z,25.57
2018-12-21T09:06:41.246Z,29.67
2018-12-21T09:09:17.595Z,26.77
2018-12-21T09:11:49.942Z,18.77
2018-12-21T09:14:23.167Z,16.63
2018-12-21T09:16:56.350Z,17.17
2018-12-21T09:19:28.870Z,16.70
2018-12-21T09:22:05.634Z,14.67
2018-12-21T09:24:38.808Z,13.50
2018-12-21T09:27:16.020Z,13.73
2018-12-21T09:29:52.370Z,14.50
2018-12-21T09:32:28.746Z,17.17
2018-12-21T09:35:05.339Z,16.07
2018-12-21T09:37:38.620Z,17.63
2018-12-21T09:40:15.538Z,18.80
2018-12-21T09:42:47.930Z,18.43
2018-12-21T09:45:25.102Z,17.00
2018-12-21T09:47:58.318Z,17.53
2018-12-21T09:50:35.299Z,17.93
2018-12-21T09:53:12.492Z,17.53
2018-12-21T09:55:49.694Z,16.33
2018-12-21T09:58:22.805Z,14.40
2018-12-21T10:00:59.949Z,13.30
2018-12-21T10:03:37.010Z,14.10
2018-12-21T10:06:09.589Z,14.67
2018-12-21T10:08:41.958Z,15.03
2018-12-21T10:11:14.992Z,15.40
2018-12-21T10:13:51.318Z,17.23
2018-12-21T10:16:23.661Z,18.37
2018-12-21T10:18:56.770Z,13.73
2018-12-21T10:21:29.991Z,12.13
2018-12-21T10:24:02.980Z,11.70
2018-12-21T10:26:36.030Z,13.40
2018-12-21T10:29:08.591Z,17.83
2018-12-21T10:31:41.621Z,13.87
2018-12-21T10:34:14.888Z,11.73
2018-12-21T10:36:47.955Z,10.63
2018-12-21T10:39:31.226Z,9.83
2018-12-21T10:42:08.018Z,10.70
2018-12-21T10:44:44.434Z,11.93
2018-12-21T10:47:16.927Z,14.17
2018-12-21T10:49:49.304Z,14.33
2018-12-21T10:52:21.670Z,14.10
2018-12-21T10:54:54.730Z,14.53
2018-12-21T10:57:31.144Z,15.20
2018-12-21T11:00:04.109Z,10.40
2018-12-21T11:02:37.101Z,14.27
2018-12-21T11:05:10.375Z,14.67
2018-12-21T11:07:46.799Z,15.60
2018-12-21T11:10:19.187Z,19.73
2018-12-21T11:12:56.299Z,17.03
2018-12-21T11:15:29.390Z,15.23
2018-12-21T11:18:01.890Z,15.53
2018-12-21T11:20:38.269Z,16.67
2018-12-21T11:23:11.259Z,18.83
2018-12-21T11:25:47.518Z,21.57
2018-12-21T11:28:25.308Z,17.20
2018-12-21T11:30:55.694Z,16.50
2018-12-21T11:33:28.916Z,15.50
2018-12-21T11:36:01.464Z,16.13
2018-12-21T11:38:38.701Z,15.30
2018-12-21T11:41:11.057Z,15.10
2018-12-21T11:43:47.398Z,16.67
2018-12-21T11:46:20.369Z,14.67
2018-12-21T11:48:53.797Z,12.20
2018-12-21T11:51:30.831Z,16.73
2018-12-21T11:54:07.900Z,15.57
2018-12-21T11:56:44.247Z,16.50
2018-12-21T11:59:16.602Z,16.70
2018-12-21T12:01:49.610Z,17.20
2018-12-21T12:04:25.976Z,16.57
2018-12-21T12:07:07.579Z,16.20
2018-12-21T12:09:44.547Z,15.63
2018-12-21T12:12:20.834Z,65.23
2018-12-21T12:14:53.403Z,21.40
2018-12-21T12:17:25.682Z,16.27
2018-12-21T12:19:58.943Z,11.90
2018-12-21T12:22:31.815Z,11.37
2018-12-21T12:25:05.249Z,10.87
2018-12-21T12:27:42.811Z,14.70
2018-12-21T12:30:15.810Z,13.90
2018-12-21T12:32:48.939Z,13.80
2018-12-21T12:35:23.147Z,14.23
2018-12-21T12:38:05.654Z,8.67
2018-12-21T12:40:38.464Z,9.63
2018-12-21T12:43:10.744Z,27.17
2018-12-21T12:45:43.734Z,30.23
2018-12-21T12:48:16.006Z,18.97
2018-12-21T12:50:48.633Z,20.03
2018-12-21T12:53:25.046Z,20.20
2018-12-21T12:55:58.287Z,20.13
2018-12-21T12:58:31.454Z,14.47
2018-12-21T13:01:08.785Z,16.30
2018-12-21T13:03:41.480Z,15.87
2018-12-21T13:06:14.529Z,18.03
2018-12-21T13:08:51.931Z,21.53
2018-12-21T13:11:24.789Z,18.50
2018-12-21T13:14:02.458Z,12.33
2018-12-21T13:16:35.473Z,9.77
2018-12-21T13:19:13.007Z,16.83
2018-12-21T13:21:50.330Z,18.23
2018-12-21T13:24:34.092Z,17.23
2018-12-21T13:27:07.284Z,15.73
2018-12-21T13:29:45.407Z,17.17
2018-12-21T13:32:18.250Z,15.03
2018-12-21T13:34:51.310Z,13.03
2018-12-21T13:37:27.742Z,12.63
2018-12-21T13:40:05.003Z,14.17
2018-12-21T13:42:37.458Z,13.80
2018-12-21T13:45:11.582Z,13.57
2018-12-21T13:47:44.482Z,13.83
2018-12-21T13:50:17.750Z,13.83
2018-12-21T13:52:50.679Z,14.73
2018-12-21T13:55:23.967Z,11.63
2018-12-21T13:58:00.828Z,15.17
2018-12-21T14:00:33.939Z,13.10
2018-12-21T14:03:07.019Z,10.00
2018-12-21T14:05:40.323Z,13.53
2018-12-21T14:08:13.506Z,13.73
2018-12-21T14:15:45.522Z,13.03
2018-12-21T14:18:18.786Z,14.03
2018-12-21T14:20:52.877Z,29.03
2018-12-21T14:23:25.886Z,13.83
2018-12-21T14:25:58.182Z,11.60
2018-12-21T14:28:35.186Z,14.27
2018-12-21T14:31:11.487Z,14.03
2018-12-21T14:33:44.433Z,11.93
2018-12-21T14:36:17.614Z,10.83
2018-12-21T14:38:51.918Z,11.70
2018-12-21T14:41:28.991Z,12.10
2018-12-21T14:44:06.358Z,10.97
2018-12-21T14:46:39.537Z,9.90
2018-12-21T14:49:11.941Z,6.60
2018-12-21T14:51:44.917Z,7.43
2018-12-21T14:54:18.014Z,6.50
2018-12-21T14:56:51.134Z,8.37
2018-12-21T14:59:24.383Z,11.20
2018-12-21T15:01:57.434Z,13.97
2018-12-21T15:04:30.485Z,15.63
2018-12-21T15:07:07.194Z,14.50
2018-12-21T15:09:40.114Z,14.17
2018-12-21T15:12:12.938Z,15.23
2018-12-21T15:14:51.170Z,12.27
2018-12-21T15:17:28.433Z,8.23
2018-12-21T15:20:01.578Z,6.67
2018-12-21T15:22:34.686Z,6.90
2018-12-21T15:25:07.621Z,9.40
2018-12-21T15:27:44.248Z,5.50
2018-12-21T15:30:17.408Z,5.73
2018-12-21T15:32:54.454Z,4.70
2018-12-21T15:35:27.618Z,5.97
2018-12-21T15:38:01.929Z,4.27
2018-12-21T15:40:35.069Z,4.40
2018-12-21T15:43:08.239Z,9.37
2018-12-21T15:45:44.993Z,6.97
2018-12-21T15:48:17.666Z,7.53
2018-12-21T15:50:50.445Z,8.40
2018-12-21T15:53:22.833Z,6.90
2018-12-21T15:55:56.082Z,8.00
2018-12-21T15:58:33.175Z,7.43
2018-12-21T16:01:10.349Z,6.87
2018-12-21T16:03:47.420Z,7.80
2018-12-21T16:06:23.706Z,7.63
2018-12-21T16:08:56.854Z,8.03
2018-12-21T16:11:30.012Z,14.80
2018-12-21T16:14:06.394Z,10.27
2018-12-21T16:16:43.869Z,8.10
2018-12-21T16:19:16.698Z,7.37
2018-12-21T16:21:49.890Z,6.43
2018-12-21T16:24:23.037Z,9.77
2018-12-21T16:26:56.234Z,8.70
2018-12-21T16:29:29.402Z,7.07
2018-12-21T16:32:02.209Z,7.83
2018-12-21T16:34:35.306Z,10.57
2018-12-21T16:37:11.602Z,10.30
2018-12-21T16:39:43.842Z,10.10
2018-12-21T16:42:21.018Z,9.93
2018-12-21T16:44:58.171Z,9.57
2018-12-21T16:47:31.330Z,8.03
2018-12-21T16:50:11.762Z,11.60
2018-12-21T16:52:48.881Z,12.33
2018-12-21T16:55:21.372Z,11.53
2018-12-21T16:57:58.566Z,7.40
2018-12-21T17:00:30.884Z,6.43
2018-12-21T17:03:04.142Z,13.00
2018-12-21T17:05:36.571Z,13.97
2018-12-21T17:08:12.898Z,10.73
2018-12-21T17:10:49.512Z,11.00
2018-12-21T17:13:22.278Z,17.60
2018-12-21T17:15:55.214Z,19.37
2018-12-21T17:18:29.123Z,7.13
2018-12-21T17:21:01.530Z,6.20
2018-12-21T17:23:37.763Z,12.47
2018-12-21T17:26:21.176Z,18.20
2018-12-21T17:28:53.365Z,6.83
2018-12-21T17:31:29.745Z,11.90
2018-12-21T17:34:02.695Z,25.10
2018-12-21T17:36:35.762Z,22.63
2018-12-21T17:39:09.222Z,17.10
2018-12-21T17:41:41.699Z,19.10
2018-12-21T17:44:14.366Z,13.57
2018-12-21T17:46:47.608Z,18.97
2018-12-21T17:49:19.914Z,15.53
2018-12-21T17:52:01.177Z,13.57
2018-12-21T17:54:27.850Z,13.20
2018-12-21T17:57:00.225Z,12.27
2018-12-21T17:59:33.621Z,12.30
2018-12-21T18:02:06.790Z,10.90
2018-12-21T18:04:39.822Z,9.93
2018-12-21T18:07:16.378Z,10.07
2018-12-21T18:09:49.462Z,9.40
2018-12-21T18:12:22.514Z,12.83
2018-12-21T18:14:55.722Z,15.03
2018-12-21T18:17:28.929Z,21.77
2018-12-21T18:20:02.117Z,16.97
2018-12-21T18:22:34.720Z,24.20
2018-12-21T18:25:25.470Z,15.07
2018-12-21T18:28:10.827Z,17.87
2018-12-21T18:30:45.235Z,19.77
2018-12-21T18:33:24.231Z,19.37
2018-12-21T18:35:56.811Z,18.77
2018-12-21T18:38:33.262Z,12.53
2018-12-21T18:41:06.265Z,13.77
2018-12-21T18:43:39.157Z,13.37
2018-12-21T18:46:12.314Z,15.57
2018-12-21T18:48:45.306Z,14.70
2018-12-21T18:51:18.413Z,26.17
2018-12-21T18:53:51.363Z,32.17
2018-12-21T18:56:26.655Z,24.70
2018-12-21T19:05:54.768Z,17.77
2018-12-21T19:08:31.155Z,19.07
2018-12-21T19:11:04.425Z,20.30
2018-12-21T19:13:37.198Z,20.03
2018-12-21T19:16:10.322Z,20.07
2018-12-21T19:18:42.609Z,21.23
2018-12-21T19:21:19.524Z,20.67
2018-12-21T19:23:53.126Z,19.53
2018-12-21T19:26:25.763Z,19.67
2018-12-21T19:28:58.088Z,19.03
2018-12-21T19:31:31.258Z,19.70
2018-12-21T19:34:04.418Z,19.20
2018-12-21T19:36:37.577Z,20.40
2018-12-21T19:39:14.423Z,24.57
2018-12-21T19:41:47.230Z,25.40
2018-12-21T19:44:20.214Z,24.47
2018-12-21T19:46:53.267Z,23.67
2018-12-21T19:49:30.566Z,20.33
2018-12-21T19:52:03.690Z,18.80
2018-12-21T19:54:36.938Z,19.60
2018-12-21T19:57:14.358Z,20.33
2018-12-21T19:59:46.838Z,19.70
2018-12-21T20:02:19.867Z,20.20
2018-12-21T20:04:56.951Z,21.30
2018-12-21T20:07:30.102Z,21.10
2018-12-21T20:10:03.402Z,24.87
2018-12-21T20:12:40.572Z,22.50
2018-12-21T20:15:16.860Z,22.60
2018-12-21T20:17:49.215Z,21.30
2018-12-21T20:20:21.514Z,22.57
2018-12-21T20:22:54.690Z,26.83
2018-12-21T20:25:27.948Z,24.77
2018-12-21T20:28:01.977Z,26.10
2018-12-21T20:30:34.946Z,25.30
2018-12-21T20:33:07.945Z,25.23
2018-12-21T20:35:44.907Z,26.00
2018-12-21T20:38:21.570Z,26.47
2018-12-21T20:40:53.018Z,26.53
2018-12-21T20:43:26.010Z,26.27
2018-12-21T20:46:02.425Z,25.37
2018-12-21T20:48:38.773Z,28.57
2018-12-21T20:51:11.046Z,33.60
2018-12-21T20:53:44.462Z,31.80
2018-12-21T20:56:17.441Z,28.80
2018-12-21T20:58:56.289Z,26.50
2018-12-21T21:01:28.835Z,27.23
2018-12-21T21:04:06.019Z,27.70
2018-12-21T21:06:42.378Z,26.70
2018-12-21T21:09:15.582Z,27.23
2018-12-21T21:11:48.757Z,31.03
2018-12-21T21:14:22.794Z,37.57
2018-12-21T21:16:59.190Z,33.63
2018-12-21T21:19:35.214Z,31.63
2018-12-21T21:22:11.525Z,29.53
2018-12-21T21:24:48.510Z,27.97
2018-12-21T21:27:30.320Z,35.40
2018-12-21T21:30:03.604Z,45.63
2018-12-21T21:32:36.613Z,38.27
2018-12-21T21:35:09.863Z,33.60
2018-12-21T21:37:43.167Z,48.50
2018-12-21T21:40:20.534Z,33.83
2018-12-21T21:42:57.590Z,33.33
2018-12-21T21:45:29.290Z,32.23
2018-12-21T21:48:02.635Z,31.73
2018-12-21T21:50:39.075Z,30.80
2018-12-21T21:53:12.335Z,29.30
2018-12-21T21:55:45.666Z,30.17
2018-12-21T21:58:20.934Z,40.70
2018-12-21T22:00:58.148Z,31.07
2018-12-21T22:03:35.363Z,32.70
2018-12-21T22:06:12.021Z,31.37
2018-12-21T22:08:45.321Z,29.63
2018-12-21T22:11:22.411Z,30.13
2018-12-21T22:13:55.853Z,28.53
2018-12-21T22:16:32.330Z,31.37
2018-12-21T22:19:09.617Z,31.83
2018-12-21T22:21:46.539Z,35.53
2018-12-21T22:24:22.893Z,31.17
2018-12-21T22:26:56.074Z,32.73
2018-12-21T22:29:33.451Z,30.37
2018-12-21T22:32:06.347Z,32.50
2018-12-21T22:34:39.467Z,43.77
2018-12-21T22:37:16.347Z,35.50
2018-12-21T22:39:52.674Z,32.57
2018-12-21T22:42:24.891Z,34.80
2018-12-21T22:44:58.007Z,31.47
2018-12-21T22:47:30.279Z,31.10
2018-12-21T22:50:08.188Z,33.27
2018-12-21T22:52:44.997Z,32.03
2018-12-21T22:55:22.111Z,33.37
2018-12-21T22:57:56.619Z,34.60
2018-12-21T23:00:34.982Z,32.37
2018-12-21T23:03:11.855Z,35.20
2018-12-21T23:05:48.850Z,37.10
2018-12-21T23:08:26.038Z,40.80
2018-12-21T23:10:58.966Z,38.87
2018-12-21T23:13:36.083Z,39.83
2018-12-21T23:16:08.351Z,53.87
2018-12-21T23:18:41.370Z,42.43
2018-12-21T23:21:13.543Z,47.80
2018-12-21T23:23:45.767Z,40.63
2018-12-21T23:26:18.051Z,42.97
2018-12-21T23:28:55.295Z,39.57
2018-12-21T23:31:32.251Z,39.17
2018-12-21T23:34:04.518Z,40.07
2018-12-21T23:36:40.694Z,40.40
2018-12-21T23:39:12.918Z,42.50
2018-12-21T23:41:49.151Z,41.00
2018-12-21T23:44:22.270Z,38.90
2018-12-21T23:46:55.249Z,35.93
2018-12-21T23:49:28.276Z,38.60
2018-12-21T23:52:05.401Z,37.30
2018-12-21T23:54:37.698Z,39.83
2018-12-21T23:57:13.903Z,38.53
2018-12-21T23:59:47.026Z,36.37
